Altona, Indiana
Current Conditions -  °F | °C
As of 1:55 AM on Monday 22 Dec 2014 (Local Time) from KGWB Reporting Station
Haze Haze  
Wind Chill: 28°   Ceiling: Unl
Heat Index: 28°   Visibility: 5mi
Dew Point: 23°   Wind: 3mph
Humidity: 80%   Direction: 110°ESE
Pressure: 30.1"   Gusts: NA
Location:  41.3275°N, 85.1414°W
Report Text: KGWB 220655Z AUTO 11003KT 5SM BR CLR M02/M05 A3010 RMK AO2
Loading
Personal Weather Stations






























Interactive Weather Map New forecast layout! Learn more

10-Day Weather Forecast

Advertisements
Track Severe Weather on mobile